Time;durP1;ratioP1;P1;durP2;ratioP2;P2;SDS_P1;SDS_P2;PMS_P1;PMS_P2;Temp;Humidity;BMP_temperature;BMP_pressure;BME280_temperature;BME280_humidity;BME280_pressure;Samples;Min_cycle;Max_cycle;Signal;HPM_P1;HPM_P2
2020/12/08 00:02:17;;;;;;;5.07;3.70;;;6.30;99.90;;;;;;5093370;28;20472;-89
2020/12/08 00:04:43;;;;;;;4.35;3.35;;;6.40;99.90;;;;;;5092073;28;20683;-89
2020/12/08 00:07:10;;;;;;;5.72;4.22;;;6.40;99.90;;;;;;5092368;28;20028;-88
2020/12/08 00:09:37;;;;;;;4.45;3.92;;;6.40;99.90;;;;;;5079925;28;20025;-88
2020/12/08 00:12:03;;;;;;;5.55;3.78;;;6.50;99.90;;;;;;5091794;28;20016;-89
2020/12/08 00:14:29;;;;;;;5.68;3.70;;;6.50;99.90;;;;;;5091722;28;20035;-88
2020/12/08 00:16:55;;;;;;;4.68;3.72;;;6.60;99.90;;;;;;5081590;28;20461;-88
2020/12/08 00:19:20;;;;;;;4.25;3.53;;;6.60;99.90;;;;;;5076025;28;22047;-88
2020/12/08 00:21:46;;;;;;;5.45;4.10;;;6.60;99.90;;;;;;5089804;28;20024;-89
2020/12/08 00:24:13;;;;;;;5.45;4.10;;;6.60;99.90;;;;;;5074947;28;20047;-88
2020/12/08 00:26:40;;;;;;;5.57;4.00;;;6.70;99.90;;;;;;5072830;28;20039;-89
2020/12/08 00:29:07;;;;;;;6.63;3.80;;;6.70;99.90;;;;;;5072616;28;20029;-88
2020/12/08 00:31:33;;;;;;;4.43;3.58;;;6.50;99.90;;;;;;5072696;28;20028;-88
2020/12/08 00:33:58;;;;;;;8.23;5.72;;;6.50;99.90;;;;;;5072700;28;20115;-88
2020/12/08 00:36:25;;;;;;;9.55;5.30;;;6.60;99.90;;;;;;5091400;28;20028;-89
2020/12/08 00:38:50;;;;;;;5.45;4.05;;;6.60;99.90;;;;;;5092702;28;20020;-88
2020/12/08 00:41:20;;;;;;;5.15;3.97;;;6.50;99.90;;;;;;5089976;28;20047;-89
2020/12/08 00:43:47;;;;;;;7.60;4.60;;;6.50;99.90;;;;;;5072357;28;20028;-88
2020/12/08 00:46:14;;;;;;;5.15;3.92;;;6.50;99.90;;;;;;5074697;28;20080;-88
2020/12/08 00:48:41;;;;;;;5.55;4.32;;;6.60;99.90;;;;;;5074228;28;20115;-88
2020/12/08 00:51:07;;;;;;;5.25;3.88;;;6.50;99.90;;;;;;5079002;28;20071;-88
2020/12/08 00:53:33;;;;;;;7.32;4.68;;;6.50;99.90;;;;;;5073305;28;20027;-88
2020/12/08 00:55:59;;;;;;;5.78;4.57;;;6.40;99.90;;;;;;5080577;28;20024;-88
2020/12/08 00:58:25;;;;;;;7.30;5.40;;;6.40;99.90;;;;;;5075333;28;20480;-89
2020/12/08 01:00:51;;;;;;;10.13;6.32;;;6.40;99.90;;;;;;5091631;28;20623;-89
2020/12/08 01:03:17;;;;;;;7.78;5.78;;;6.30;99.90;;;;;;5091988;28;20024;-89
2020/12/08 01:05:43;;;;;;;8.68;6.50;;;6.30;99.90;;;;;;5085244;28;20046;-88
2020/12/08 01:08:08;;;;;;;10.05;7.25;;;6.30;99.90;;;;;;5092113;28;20040;-89
2020/12/08 01:10:34;;;;;;;9.63;6.25;;;6.40;99.90;;;;;;5073045;28;20400;-89
2020/12/08 01:12:59;;;;;;;8.00;6.20;;;6.40;99.90;;;;;;5072031;28;20020;-89
2020/12/08 01:15:25;;;;;;;6.97;5.68;;;6.30;99.90;;;;;;5072211;28;20434;-88
2020/12/08 01:17:51;;;;;;;8.95;5.60;;;6.30;99.90;;;;;;5071995;28;20480;-89
2020/12/08 01:20:17;;;;;;;7.00;5.13;;;6.20;99.90;;;;;;5072227;28;20507;-88
2020/12/08 01:22:43;;;;;;;6.93;5.93;;;6.20;99.90;;;;;;5084462;28;20012;-89
2020/12/08 01:25:09;;;;;;;8.57;6.65;;;6.10;99.90;;;;;;5076918;28;20029;-89
2020/12/08 01:27:35;;;;;;;10.48;8.07;;;5.90;99.90;;;;;;5071956;28;20016;-89
2020/12/08 01:30:00;;;;;;;11.70;9.15;;;5.80;99.90;;;;;;5071722;28;20427;-88
2020/12/08 01:32:26;;;;;;;12.38;9.00;;;5.90;99.90;;;;;;5087989;28;20027;-88
2020/12/08 01:34:52;;;;;;;12.85;8.80;;;5.80;99.90;;;;;;5087930;28;20483;-89
2020/12/08 01:37:18;;;;;;;13.05;8.55;;;5.70;99.90;;;;;;5091419;28;20081;-89
2020/12/08 01:39:43;;;;;;;11.05;8.38;;;5.70;99.90;;;;;;5091836;28;20024;-89
2020/12/08 01:42:10;;;;;;;12.45;8.18;;;5.70;99.90;;;;;;5091434;28;20020;-88
2020/12/08 01:44:35;;;;;;;11.05;8.13;;;5.70;99.90;;;;;;5073267;28;20498;-89
2020/12/08 01:47:02;;;;;;;9.70;7.15;;;5.70;99.90;;;;;;5082547;28;20024;-88
2020/12/08 01:49:28;;;;;;;9.70;7.10;;;5.70;99.90;;;;;;5081324;28;20111;-89
2020/12/08 01:51:54;;;;;;;8.50;7.05;;;5.70;99.90;;;;;;5081151;28;20115;-88
2020/12/08 01:54:20;;;;;;;9.27;7.25;;;5.70;99.90;;;;;;5080403;28;20032;-89
2020/12/08 01:56:46;;;;;;;8.23;6.40;;;5.70;99.90;;;;;;5075568;28;20020;-88
2020/12/08 01:59:12;;;;;;;9.10;7.47;;;5.70;99.90;;;;;;5075107;28;20064;-89
2020/12/08 02:01:38;;;;;;;12.38;8.20;;;5.60;99.90;;;;;;5075198;28;20052;-89
2020/12/08 02:04:05;;;;;;;10.25;7.63;;;5.70;99.90;;;;;;5087480;28;20028;-88
2020/12/08 02:06:30;;;;;;;10.00;7.40;;;5.70;99.90;;;;;;5079450;28;20017;-89
2020/12/08 02:08:56;;;;;;;9.95;7.47;;;5.70;99.90;;;;;;5086655;28;20044;-89
2020/12/08 02:11:22;;;;;;;9.95;7.22;;;5.60;99.90;;;;;;5095008;28;20017;-88
2020/12/08 02:13:48;;;;;;;8.10;7.05;;;5.60;99.90;;;;;;5091791;28;20017;-89
2020/12/08 02:16:14;;;;;;;9.38;7.28;;;5.60;99.90;;;;;;5075548;28;20032;-88
2020/12/08 02:18:39;;;;;;;9.60;7.63;;;5.60;99.90;;;;;;5087941;28;20024;-89
2020/12/08 02:21:06;;;;;;;10.95;8.00;;;5.60;99.90;;;;;;5093383;28;20031;-89
2020/12/08 02:23:32;;;;;;;11.43;7.75;;;5.60;99.90;;;;;;5095545;28;20032;-88
2020/12/08 02:26:08;;;;;;;11.10;8.75;;;5.60;99.90;;;;;;5081070;28;20484;-88
2020/12/08 02:28:33;;;;;;;10.55;8.23;;;5.50;99.90;;;;;;5075027;28;20025;-89
2020/12/08 02:30:59;;;;;;;10.27;7.93;;;5.60;99.90;;;;;;5075044;28;20070;-88
2020/12/08 02:33:27;;;;;;;9.88;7.78;;;5.60;99.90;;;;;;5087555;28;20028;-89
2020/12/08 02:35:55;;;;;;;9.70;7.82;;;5.60;99.90;;;;;;5095645;28;20027;-89
2020/12/08 02:38:22;;;;;;;9.68;8.23;;;5.60;99.90;;;;;;5079728;28;20044;-89
2020/12/08 02:40:47;;;;;;;9.88;7.57;;;5.50;99.90;;;;;;5076022;28;20029;-89
2020/12/08 02:43:13;;;;;;;10.32;8.50;;;5.50;99.90;;;;;;5086898;28;20073;-89
2020/12/08 02:45:40;;;;;;;10.32;8.23;;;5.50;99.90;;;;;;5093842;28;20020;-89
2020/12/08 02:48:06;;;;;;;11.75;7.97;;;5.40;99.90;;;;;;5093091;28;20074;-89
2020/12/08 02:50:31;;;;;;;10.27;8.10;;;5.30;99.90;;;;;;5084578;28;20507;-89
2020/12/08 02:52:57;;;;;;;10.60;7.65;;;5.30;99.90;;;;;;5074574;28;20020;-89
2020/12/08 02:55:22;;;;;;;10.43;8.00;;;5.30;99.90;;;;;;5081169;28;20486;-89
2020/12/08 02:57:48;;;;;;;9.15;6.97;;;5.20;99.90;;;;;;5093614;28;20028;-89
2020/12/08 03:00:14;;;;;;;9.95;6.85;;;5.20;99.90;;;;;;5077725;28;20021;-89
2020/12/08 03:02:39;;;;;;;8.32;6.50;;;5.20;99.90;;;;;;5083931;28;20024;-89
2020/12/08 03:05:06;;;;;;;8.13;6.00;;;5.30;99.90;;;;;;5095305;28;20032;-89
2020/12/08 03:07:31;;;;;;;8.00;6.63;;;5.30;99.90;;;;;;5077515;28;20388;-89
2020/12/08 03:09:57;;;;;;;10.13;6.70;;;5.30;99.90;;;;;;5086388;28;20030;-88
2020/12/08 03:12:23;;;;;;;8.30;6.40;;;5.20;99.90;;;;;;5084367;28;20029;-89
2020/12/08 03:14:48;;;;;;;8.57;6.70;;;5.20;99.90;;;;;;5087659;28;20449;-89
2020/12/08 03:17:14;;;;;;;7.82;6.20;;;5.20;99.90;;;;;;5085335;28;20017;-89
2020/12/08 03:19:40;;;;;;;8.32;6.55;;;5.20;99.90;;;;;;5090302;28;20032;-89
2020/12/08 03:22:06;;;;;;;9.55;7.07;;;5.20;99.90;;;;;;5087864;28;20103;-89
2020/12/08 03:24:32;;;;;;;9.20;6.75;;;5.20;99.90;;;;;;5077836;28;20032;-89
2020/12/08 03:26:57;;;;;;;9.23;6.57;;;5.20;99.90;;;;;;5073959;28;20024;-89
2020/12/08 03:29:23;;;;;;;10.00;7.38;;;5.20;99.90;;;;;;5073408;28;20020;-89
2020/12/08 03:31:48;;;;;;;10.23;7.50;;;5.20;99.90;;;;;;5073540;28;20045;-89
2020/12/08 03:34:14;;;;;;;11.80;7.72;;;5.20;99.90;;;;;;5073640;28;20115;-89
2020/12/08 03:36:40;;;;;;;9.85;7.40;;;5.20;99.90;;;;;;5091206;28;20157;-89
2020/12/08 03:39:06;;;;;;;8.30;6.70;;;5.20;99.90;;;;;;5092356;28;20468;-89
2020/12/08 03:41:31;;;;;;;7.72;6.20;;;5.20;99.90;;;;;;5080553;28;20494;-89
2020/12/08 03:43:57;;;;;;;9.38;7.05;;;5.20;99.90;;;;;;5091383;28;20032;-89
2020/12/08 03:46:25;;;;;;;10.20;6.45;;;5.20;99.90;;;;;;5079385;28;20396;-89
2020/12/08 03:48:51;;;;;;;8.52;6.45;;;5.20;99.90;;;;;;5075203;28;20032;-89
2020/12/08 03:51:18;;;;;;;7.65;6.25;;;5.10;99.90;;;;;;5084908;28;20034;-89
2020/12/08 03:53:45;;;;;;;6.30;5.15;;;5.20;99.90;;;;;;5078315;28;20024;-89
2020/12/08 03:56:11;;;;;;;5.63;4.53;;;5.20;99.90;;;;;;5080381;28;20016;-88
2020/12/08 03:58:38;;;;;;;5.07;4.57;;;5.30;99.90;;;;;;5072932;28;20032;-89
2020/12/08 04:01:05;;;;;;;7.32;4.85;;;5.30;99.90;;;;;;5086523;28;20030;-89
2020/12/08 04:03:31;;;;;;;6.13;4.53;;;5.30;99.90;;;;;;5093108;28;20032;-89
2020/12/08 04:06:04;;;;;;;5.95;4.50;;;5.30;99.90;;;;;;5085896;28;20025;-89
2020/12/08 04:08:30;;;;;;;5.75;4.90;;;5.30;99.90;;;;;;5092493;28;20044;-89
2020/12/08 04:10:56;;;;;;;5.63;4.50;;;5.20;99.90;;;;;;5076179;28;20031;-89
2020/12/08 04:13:21;;;;;;;5.45;4.70;;;5.30;99.90;;;;;;5081857;28;20032;-89
2020/12/08 04:15:47;;;;;;;5.90;5.10;;;5.20;99.90;;;;;;5080085;28;20028;-89
2020/12/08 04:18:14;;;;;;;5.80;4.78;;;5.20;99.90;;;;;;5092775;28;20028;-89
2020/12/08 04:20:41;;;;;;;6.63;4.93;;;5.20;99.90;;;;;;5080293;28;20043;-89
2020/12/08 04:23:07;;;;;;;7.88;4.72;;;5.20;99.90;;;;;;5073529;28;20085;-89
2020/12/08 04:25:33;;;;;;;7.70;5.35;;;5.10;99.90;;;;;;5073834;28;20024;-89
2020/12/08 04:27:59;;;;;;;6.30;5.22;;;5.10;99.90;;;;;;5089278;28;20111;-89
2020/12/08 04:30:25;;;;;;;6.35;5.35;;;5.10;99.90;;;;;;5091047;28;20131;-89
2020/12/08 04:32:50;;;;;;;6.30;5.35;;;5.00;99.90;;;;;;5091792;28;20032;-89
2020/12/08 04:35:16;;;;;;;6.15;5.20;;;4.90;99.90;;;;;;5071887;28;20388;-89
2020/12/08 04:37:41;;;;;;;6.82;5.53;;;4.90;99.90;;;;;;5072628;28;20032;-89
2020/12/08 04:40:07;;;;;;;5.90;5.13;;;4.90;99.90;;;;;;5072199;28;20025;-89
2020/12/08 04:42:33;;;;;;;7.55;5.78;;;4.80;99.90;;;;;;5084281;28;20124;-89
2020/12/08 04:44:59;;;;;;;8.20;6.00;;;4.70;99.90;;;;;;5092256;28;20085;-89
2020/12/08 04:47:26;;;;;;;7.85;6.10;;;4.60;99.90;;;;;;5091738;28;20034;-89
2020/12/08 04:49:56;;;;;;;7.40;6.28;;;4.70;99.90;;;;;;5080164;28;20025;-89
2020/12/08 04:52:22;;;;;;;7.70;5.97;;;4.70;99.90;;;;;;5075159;28;20077;-89
2020/12/08 04:54:47;;;;;;;7.30;5.80;;;4.60;99.90;;;;;;5085402;28;20491;-89
2020/12/08 04:57:13;;;;;;;6.75;5.70;;;4.50;99.90;;;;;;5084025;28;20472;-89
2020/12/08 04:59:39;;;;;;;8.02;6.30;;;4.60;99.90;;;;;;5086011;28;20024;-89
2020/12/08 05:02:05;;;;;;;8.23;6.20;;;4.60;99.90;;;;;;5112921;28;20118;-89
2020/12/08 05:04:31;;;;;;;9.20;6.22;;;4.60;99.90;;;;;;5074045;28;20057;-89
2020/12/08 05:07:01;;;;;;;8.57;6.70;;;4.60;99.90;;;;;;5087823;28;20028;-89
2020/12/08 05:09:27;;;;;;;7.53;6.13;;;4.40;99.90;;;;;;5091179;28;20444;-89
2020/12/08 05:11:57;;;;;;;9.25;6.18;;;4.40;99.90;;;;;;5089277;28;20063;-89
2020/12/08 05:14:23;;;;;;;9.27;6.50;;;4.40;99.90;;;;;;5089364;28;20020;-89
2020/12/08 05:16:48;;;;;;;8.05;6.40;;;4.40;99.90;;;;;;5091681;28;20442;-89
2020/12/08 05:19:15;;;;;;;7.63;5.85;;;4.20;99.90;;;;;;5091388;28;20552;-89
2020/12/08 05:21:50;;;;;;;7.53;5.70;;;4.30;99.90;;;;;;5090394;28;20016;-89
2020/12/08 05:24:26;;;;;;;9.20;6.47;;;4.30;99.90;;;;;;5087353;28;20012;-89
2020/12/08 05:26:53;;;;;;;9.68;6.50;;;4.30;99.90;;;;;;5084015;28;20077;-89
2020/12/08 05:29:20;;;;;;;7.22;5.82;;;4.40;99.90;;;;;;5076040;28;20106;-89
2020/12/08 05:31:46;;;;;;;7.50;6.10;;;4.40;99.90;;;;;;5076937;28;20113;-89
2020/12/08 05:34:18;;;;;;;10.00;6.80;;;4.40;99.90;;;;;;5075906;28;20025;-89
2020/12/08 05:36:50;;;;;;;8.50;5.88;;;4.50;99.90;;;;;;5081751;28;20032;-89
2020/12/08 05:39:23;;;;;;;8.85;5.97;;;4.40;99.90;;;;;;5075655;28;20028;-89
2020/12/08 05:41:51;;;;;;;8.65;5.88;;;4.40;99.90;;;;;;5090615;28;20035;-89
2020/12/08 05:44:25;;;;;;;8.35;6.00;;;4.40;99.90;;;;;;5077884;28;20052;-89
2020/12/08 05:46:53;;;;;;;7.13;5.75;;;4.30;99.90;;;;;;5076386;28;20029;-89
2020/12/08 05:49:20;;;;;;;9.38;6.05;;;4.40;99.90;;;;;;5078358;28;20022;-89
2020/12/08 05:51:48;;;;;;;9.20;6.20;;;4.30;99.90;;;;;;5083917;28;20036;-89
2020/12/08 05:54:21;;;;;;;7.65;5.78;;;4.30;99.90;;;;;;5084802;28;20396;-89
2020/12/08 05:56:48;;;;;;;6.97;5.43;;;4.20;99.90;;;;;;5088141;28;20780;-89
2020/12/08 05:59:27;;;;;;;7.95;6.07;;;4.30;99.90;;;;;;5091236;28;20081;-89
2020/12/08 06:01:53;;;;;;;8.27;5.90;;;4.20;99.90;;;;;;5088839;28;20035;-89
2020/12/08 06:04:19;;;;;;;7.22;5.60;;;4.20;99.90;;;;;;5094902;28;20027;-89
2020/12/08 06:06:56;;;;;;;7.78;6.00;;;4.20;99.90;;;;;;5088140;28;20036;-89
2020/12/08 06:09:25;;;;;;;8.73;6.50;;;4.30;99.90;;;;;;5108079;28;20048;-89
2020/12/08 06:11:51;;;;;;;8.77;6.38;;;4.30;99.90;;;;;;5087363;28;20056;-89
2020/12/08 06:14:27;;;;;;;7.47;6.22;;;4.20;99.90;;;;;;5089429;28;20074;-89
2020/12/08 06:17:02;;;;;;;10.27;7.00;;;4.50;99.90;;;;;;5087726;28;20480;-89
2020/12/08 06:19:29;;;;;;;8.25;6.28;;;4.20;99.90;;;;;;5085065;28;20028;-89
2020/12/08 06:21:54;;;;;;;10.23;7.00;;;4.20;99.90;;;;;;5094679;28;20107;-89
2020/12/08 06:24:20;;;;;;;10.25;7.40;;;4.20;99.90;;;;;;5095276;28;20107;-89
2020/12/08 06:26:46;;;;;;;8.40;6.68;;;4.20;99.90;;;;;;5081321;28;20035;-88
2020/12/08 06:29:11;;;;;;;9.95;6.78;;;4.20;99.90;;;;;;5093474;28;20028;-89
2020/12/08 06:31:41;;;;;;;7.18;6.38;;;4.20;99.90;;;;;;5094628;28;20472;-89
2020/12/08 06:34:07;;;;;;;9.30;6.90;;;4.20;99.90;;;;;;5093252;28;20059;-89
2020/12/08 06:36:32;;;;;;;9.82;6.30;;;4.20;99.90;;;;;;5079109;28;20040;-90
2020/12/08 06:38:59;;;;;;;9.35;7.40;;;4.20;99.90;;;;;;5075362;28;20369;-89
2020/12/08 06:41:30;;;;;;;9.88;7.55;;;4.40;99.90;;;;;;5089054;28;20032;-89
2020/12/08 06:43:57;;;;;;;9.95;7.50;;;4.20;99.90;;;;;;5077152;28;20033;-89
2020/12/08 06:46:23;;;;;;;10.48;7.68;;;4.20;99.90;;;;;;5085441;28;20024;-89
2020/12/08 06:49:07;;;;;;;8.85;7.13;;;4.10;99.90;;;;;;5086023;28;20509;-89
2020/12/08 06:51:34;;;;;;;11.57;8.05;;;4.10;99.90;;;;;;5076773;28;20063;-89
2020/12/08 06:54:11;;;;;;;13.02;8.77;;;4.40;99.90;;;;;;5085943;28;20489;-89
2020/12/08 06:56:37;;;;;;;11.77;8.48;;;3.90;99.90;;;;;;5092410;28;20043;-89
2020/12/08 06:59:03;;;;;;;10.27;7.47;;;3.90;99.90;;;;;;5075142;28;20448;-89
2020/12/08 07:01:28;;;;;;;10.35;7.50;;;4.10;99.90;;;;;;5082909;28;20118;-89
2020/12/08 07:03:55;;;;;;;11.00;7.63;;;3.90;99.90;;;;;;5094583;28;20555;-90
2020/12/08 07:06:21;;;;;;;9.50;7.03;;;4.40;99.90;;;;;;5079416;28;20020;-89
2020/12/08 07:08:48;;;;;;;9.95;7.78;;;4.10;99.90;;;;;;5074697;28;20044;-90
2020/12/08 07:11:24;;;;;;;10.75;7.15;;;4.30;99.90;;;;;;5074984;28;20035;-90
2020/12/08 07:14:44;;;;;;;10.63;7.50;;;4.10;99.90;;;;;;5096672;28;20495;-92
2020/12/08 07:17:10;;;;;;;10.23;7.22;;;4.20;99.90;;;;;;5094905;28;20024;-92
2020/12/08 07:19:35;;;;;;;10.27;7.38;;;4.20;99.90;;;;;;5094839;28;20028;-92
2020/12/08 07:22:07;;;;;;;9.32;6.78;;;4.30;99.90;;;;;;5095098;28;20032;-91
2020/12/08 07:24:40;;;;;;;8.95;6.43;;;4.30;99.90;;;;;;5094632;28;20491;-90
2020/12/08 07:27:07;;;;;;;13.00;7.85;;;4.30;99.90;;;;;;5094447;28;20476;-93
2020/12/08 07:29:32;;;;;;;12.57;7.40;;;4.50;99.90;;;;;;5075051;28;20024;-90
2020/12/08 07:31:58;;;;;;;10.23;7.78;;;4.40;99.90;;;;;;5073874;28;20043;-90
2020/12/08 07:34:23;;;;;;;10.35;7.07;;;4.50;99.90;;;;;;5073757;28;20068;-90
2020/12/08 07:36:49;;;;;;;10.35;7.72;;;4.50;99.90;;;;;;5081273;28;20108;-90
2020/12/08 07:39:20;;;;;;;10.82;7.13;;;4.60;99.90;;;;;;5092104;28;20067;-89
2020/12/08 07:41:45;;;;;;;11.10;7.20;;;4.70;99.90;;;;;;5083070;28;20024;-90
2020/12/08 07:44:18;;;;;;;9.93;7.35;;;4.90;99.90;;;;;;5093470;28;20051;-89
2020/12/08 07:46:49;;;;;;;12.00;6.53;;;6.10;99.90;;;;;;5092974;28;20487;-88
2020/12/08 07:49:15;;;;;;;11.95;6.82;;;7.00;99.90;;;;;;5089285;28;20111;-89
2020/12/08 07:51:41;;;;;;;10.82;7.45;;;6.80;99.90;;;;;;5076491;28;20107;-89
2020/12/08 07:54:08;;;;;;;10.50;6.82;;;7.10;99.90;;;;;;5074919;28;20112;-88
2020/12/08 07:56:36;;;;;;;11.38;7.10;;;8.80;99.90;;;;;;5072794;28;20021;-88
2020/12/08 07:59:03;;;;;;;11.07;6.68;;;9.50;99.90;;;;;;5071846;28;20036;-88
2020/12/08 08:01:36;;;;;;;14.13;7.18;;;10.00;99.90;;;;;;5091057;28;20069;-87
2020/12/08 08:04:01;;;;;;;11.82;6.40;;;11.30;99.90;;;;;;5076968;28;20036;-89
2020/12/08 08:06:27;;;;;;;9.35;6.68;;;10.90;99.90;;;;;;5077350;28;20116;-88
2020/12/08 08:08:54;;;;;;;10.07;6.97;;;12.30;99.90;;;;;;5081738;28;20094;-89
2020/12/08 08:11:19;;;;;;;8.18;6.72;;;11.70;99.90;;;;;;5086251;28;20016;-89
2020/12/08 08:13:46;;;;;;;9.00;6.70;;;11.20;99.90;;;;;;5076269;28;20108;-89
2020/12/08 08:16:14;;;;;;;12.18;7.53;;;10.60;99.90;;;;;;5073195;28;20024;-89
2020/12/08 08:18:40;;;;;;;10.15;7.65;;;11.40;99.90;;;;;;5075347;28;20557;-89
2020/12/08 08:21:06;;;;;;;10.73;7.43;;;10.90;99.90;;;;;;5072181;28;20028;-88
2020/12/08 08:23:32;;;;;;;9.88;7.35;;;13.20;99.90;;;;;;5077389;28;20028;-89
2020/12/08 08:25:58;;;;;;;9.75;7.18;;;16.20;99.90;;;;;;5093293;28;20035;-90
2020/12/08 08:28:24;;;;;;;10.20;7.00;;;17.90;99.90;;;;;;5092932;28;20482;-90
2020/12/08 08:30:51;;;;;;;9.10;6.25;;;19.50;99.90;;;;;;5090449;28;20083;-90
2020/12/08 08:33:16;;;;;;;8.80;6.40;;;20.50;99.90;;;;;;5072795;28;20020;-93
2020/12/08 08:35:42;;;;;;;8.07;7.03;;;21.30;99.90;;;;;;5073304;28;20377;-92
2020/12/08 08:38:07;;;;;;;9.23;7.03;;;22.00;99.90;;;;;;5072994;28;20020;-93
2020/12/08 08:40:33;;;;;;;8.88;7.03;;;22.50;99.90;;;;;;5072913;28;20032;-92
2020/12/08 08:42:59;;;;;;;9.65;7.03;;;22.90;99.90;;;;;;5093387;28;20402;-92
2020/12/08 08:45:25;;;;;;;8.10;6.88;;;23.40;99.90;;;;;;5111558;28;20024;-92
2020/12/08 08:47:54;;;;;;;9.93;6.82;;;23.90;99.90;;;;;;5080541;28;20024;-92
2020/12/08 08:50:20;;;;;;;8.68;6.90;;;24.40;99.90;;;;;;5092812;28;20024;-92
2020/12/08 08:52:45;;;;;;;6.25;5.53;;;24.70;99.90;;;;;;5097202;28;20020;-92
2020/12/08 08:55:11;;;;;;;8.10;5.72;;;24.20;99.90;;;;;;5093292;28;20024;-93
2020/12/08 08:57:40;;;;;;;8.93;6.28;;;23.30;99.90;;;;;;5092392;28;20020;-92
2020/12/08 09:00:08;;;;;;;7.30;5.65;;;23.40;99.90;;;;;;5092561;28;20103;-91
2020/12/08 09:02:58;;;;;;;7.55;5.45;;;23.10;99.90;;;;;;5092091;28;20034;-91
2020/12/08 09:05:25;;;;;;;12.05;6.05;;;23.50;99.90;;;;;;5092536;28;20024;-91
2020/12/08 09:07:51;;;;;;;6.97;6.18;;;20.70;99.90;;;;;;5092514;28;20099;-91
2020/12/08 09:10:17;;;;;;;6.25;5.50;;;21.30;99.90;;;;;;5075517;28;20102;-91
2020/12/08 09:12:43;;;;;;;5.90;4.55;;;23.50;99.90;;;;;;5092188;28;20035;-91
2020/12/08 09:15:09;;;;;;;6.25;4.60;;;24.40;99.90;;;;;;5091998;28;20023;-91
2020/12/08 09:17:35;;;;;;;6.25;4.55;;;24.40;99.90;;;;;;5093578;28;20044;-91
2020/12/08 09:20:01;;;;;;;5.78;4.43;;;25.40;99.90;;;;;;5093193;28;20427;-91
2020/12/08 09:22:26;;;;;;;5.32;4.43;;;24.90;99.90;;;;;;5091936;28;20028;-91
2020/12/08 09:24:52;;;;;;;5.10;4.60;;;24.70;99.90;;;;;;5092644;28;20024;-91
2020/12/08 09:27:18;;;;;;;6.13;5.18;;;24.80;99.90;;;;;;5091148;28;20393;-91
2020/12/08 09:29:43;;;;;;;5.20;4.72;;;26.40;99.90;;;;;;5091838;28;20025;-91
2020/12/08 09:32:10;;;;;;;6.43;5.53;;;27.00;99.90;;;;;;5091997;28;20027;-91
2020/12/08 09:34:35;;;;;;;7.85;5.13;;;26.90;99.90;;;;;;5091797;28;20149;-91
2020/12/08 09:37:02;;;;;;;6.32;5.22;;;27.80;99.90;;;;;;5091811;28;20400;-91
2020/12/08 09:39:27;;;;;;;6.82;5.80;;;25.90;99.90;;;;;;5093079;28;20025;-91
2020/12/08 09:41:53;;;;;;;6.85;6.00;;;20.30;99.90;;;;;;5080931;28;20029;-91
2020/12/08 09:44:19;;;;;;;6.43;5.75;;;16.90;99.90;;;;;;5071652;28;20398;-90
2020/12/08 09:46:45;;;;;;;6.80;6.20;;;14.50;99.90;;;;;;5071730;28;20396;-90
2020/12/08 09:49:12;;;;;;;6.72;5.97;;;13.10;99.90;;;;;;5071622;28;20025;-91
2020/12/08 09:51:37;;;;;;;8.18;6.13;;;13.00;99.90;;;;;;5071771;28;20024;-90
2020/12/08 09:54:04;;;;;;;7.57;6.00;;;13.00;99.90;;;;;;5072303;28;20017;-90
2020/12/08 09:56:30;;;;;;;6.53;5.85;;;12.80;99.90;;;;;;5071839;28;20447;-90
2020/12/08 09:58:56;;;;;;;8.27;6.13;;;12.70;99.90;;;;;;5070898;28;20024;-90
2020/12/08 10:01:26;;;;;;;8.25;6.60;;;12.60;99.90;;;;;;5088574;28;20054;-89
2020/12/08 10:03:53;;;;;;;6.85;6.15;;;13.30;99.90;;;;;;5086949;28;20474;-92
2020/12/08 10:06:19;;;;;;;7.75;6.38;;;15.50;99.90;;;;;;5092035;28;20028;-94
2020/12/08 10:08:45;;;;;;;9.02;6.30;;;20.10;99.90;;;;;;5091491;28;20051;-91
2020/12/08 10:11:13;;;;;;;10.15;6.13;;;20.90;99.90;;;;;;5092416;28;20024;-91
2020/12/08 10:13:39;;;;;;;8.07;5.88;;;20.50;99.90;;;;;;5082736;28;20115;-91
2020/12/08 10:16:04;;;;;;;8.43;5.70;;;18.10;99.90;;;;;;5075534;28;20511;-91
2020/12/08 10:18:30;;;;;;;6.00;5.43;;;16.80;99.90;;;;;;5075449;28;20067;-91
2020/12/08 10:20:55;;;;;;;7.13;5.28;;;17.60;99.90;;;;;;5075273;28;20507;-91
2020/12/08 10:23:21;;;;;;;6.93;5.90;;;15.70;99.90;;;;;;5076193;28;20059;-91
2020/12/08 10:25:47;;;;;;;5.75;5.25;;;14.60;99.90;;;;;;5081674;28;20020;-91
2020/12/08 10:28:13;;;;;;;7.75;5.65;;;13.30;99.90;;;;;;5074797;28;20595;-91
2020/12/08 10:30:39;;;;;;;7.60;5.65;;;12.90;99.90;;;;;;5075290;28;20020;-91
2020/12/08 10:33:04;;;;;;;9.40;5.72;;;12.50;99.90;;;;;;5075029;28;20503;-91
2020/12/08 10:35:30;;;;;;;8.07;5.32;;;12.60;99.90;;;;;;5075075;28;20025;-90
2020/12/08 10:37:55;;;;;;;7.85;4.88;;;12.60;99.90;;;;;;5075463;28;20028;-93
2020/12/08 10:40:21;;;;;;;6.63;4.10;;;12.70;99.90;;;;;;5074997;28;20028;-93
2020/12/08 10:42:47;;;;;;;5.97;3.67;;;13.20;99.90;;;;;;5075407;28;20029;-92
2020/12/08 10:45:12;;;;;;;5.18;3.50;;;13.20;99.90;;;;;;5075436;28;20119;-91
2020/12/08 10:47:38;;;;;;;6.03;3.03;;;13.30;99.90;;;;;;5075118;28;20028;-91
2020/12/08 10:50:04;;;;;;;4.15;3.20;;;13.00;99.90;;;;;;5075081;28;20033;-90
2020/12/08 10:52:30;;;;;;;7.25;3.25;;;12.40;99.90;;;;;;5074879;28;20040;-91
2020/12/08 10:54:56;;;;;;;2.88;2.50;;;12.10;99.90;;;;;;5075079;28;20047;-92
2020/12/08 10:57:21;;;;;;;3.72;2.90;;;12.40;99.90;;;;;;5076672;28;20051;-93
2020/12/08 10:59:47;;;;;;;5.78;3.63;;;12.00;99.90;;;;;;5075285;28;20025;-92
2020/12/08 11:02:16;;;;;;;5.10;3.65;;;11.80;99.90;;;;;;5078582;28;20038;-95
2020/12/08 11:04:41;;;;;;;5.35;3.65;;;11.80;99.90;;;;;;5095191;28;20024;-94
2020/12/08 11:11:06;;;;;;;4.70;3.50;;;11.80;99.90;;;;;;5053252;28;20052;-95
2020/12/08 11:13:31;;;;;;;5.20;3.40;;;12.40;99.90;;;;;;5074851;28;20097;-95
2020/12/08 11:15:58;;;;;;;6.25;3.65;;;13.00;99.90;;;;;;5074750;28;20489;-95
2020/12/08 11:21:46;;;;;;;4.90;3.22;;;12.20;99.90;;;;;;5076068;28;20515;-95
2020/12/08 11:24:12;;;;;;;6.35;4.00;;;11.70;99.90;;;;;;5080890;28;20024;-94
2020/12/08 11:26:37;;;;;;;8.45;4.15;;;11.30;99.90;;;;;;5094764;28;20127;-94
2020/12/08 11:29:05;;;;;;;4.85;3.70;;;11.60;99.90;;;;;;5094433;28;20028;-94
2020/12/08 11:31:31;;;;;;;6.57;3.60;;;11.30;99.90;;;;;;5094767;28;20093;-94
2020/12/08 11:33:57;;;;;;;7.10;3.47;;;11.50;99.90;;;;;;5094743;28;20020;-94
2020/12/08 11:36:23;;;;;;;3.97;3.15;;;11.30;99.90;;;;;;5095043;28;20024;-93
2020/12/08 11:38:48;;;;;;;4.28;2.95;;;11.60;99.90;;;;;;5094510;28;20043;-94
2020/12/08 11:41:14;;;;;;;4.13;3.38;;;11.10;99.90;;;;;;5094434;28;20035;-92
2020/12/08 11:43:40;;;;;;;4.45;3.22;;;11.20;99.90;;;;;;5075808;28;20112;-92
2020/12/08 11:46:10;;;;;;;5.20;2.97;;;11.10;99.90;;;;;;5074418;28;20028;-93
2020/12/08 11:48:35;;;;;;;4.40;3.33;;;10.90;99.90;;;;;;5073987;28;20032;-94
2020/12/08 11:51:02;;;;;;;6.50;3.75;;;11.20;99.90;;;;;;5079381;28;20021;-96
2020/12/08 11:53:28;;;;;;;5.40;3.47;;;11.10;99.90;;;;;;5074483;28;20021;-93
2020/12/08 11:55:53;;;;;;;5.05;3.67;;;11.10;99.90;;;;;;5074436;28;20496;-92
2020/12/08 11:58:19;;;;;;;4.60;3.35;;;10.90;99.90;;;;;;5075023;28;20119;-92
2020/12/08 12:00:45;;;;;;;5.35;3.47;;;10.70;99.90;;;;;;5073722;28;20024;-93
2020/12/08 12:03:10;;;;;;;7.10;3.55;;;10.70;99.90;;;;;;5073892;28;20020;-92
2020/12/08 12:05:37;;;;;;;4.30;3.33;;;10.50;99.90;;;;;;5073823;28;20469;-94
2020/12/08 12:08:03;;;;;;;8.90;3.67;;;10.90;99.90;;;;;;5073800;28;20119;-91
2020/12/08 12:10:29;;;;;;;6.00;3.85;;;10.30;99.90;;;;;;5073693;28;20024;-93
2020/12/08 12:12:55;;;;;;;7.07;4.15;;;10.20;99.90;;;;;;5073348;28;20041;-95
2020/12/08 12:15:22;;;;;;;10.05;4.50;;;10.70;99.90;;;;;;5073866;28;20373;-96
2020/12/08 12:17:47;;;;;;;6.38;4.68;;;10.20;99.90;;;;;;5074092;28;20020;-92
2020/12/08 12:20:13;;;;;;;7.13;4.93;;;10.30;99.90;;;;;;5074766;28;20032;-92
2020/12/08 12:22:39;;;;;;;8.48;4.80;;;10.00;99.90;;;;;;5074277;28;20016;-95
2020/12/08 12:25:06;;;;;;;8.07;5.57;;;10.60;99.90;;;;;;5073446;28;20400;-92
2020/12/08 12:27:32;;;;;;;8.98;5.72;;;10.10;99.90;;;;;;5073089;28;20028;-92
2020/12/08 12:29:58;;;;;;;19.00;6.40;;;10.60;99.90;;;;;;5086046;28;20032;-93
2020/12/08 12:32:24;;;;;;;8.07;5.72;;;10.10;99.90;;;;;;5090304;28;20032;-93
2020/12/08 12:34:50;;;;;;;8.60;5.40;;;10.80;99.90;;;;;;5072532;28;20082;-93
2020/12/08 12:37:16;;;;;;;9.48;5.35;;;10.20;99.90;;;;;;5072974;28;20516;-92
2020/12/08 12:43:33;;;;;;;8.05;6.10;;;10.40;99.90;;;;;;5093628;28;20108;-91
2020/12/08 12:45:59;;;;;;;8.45;5.60;;;10.50;99.90;;;;;;5077878;28;20352;-90
2020/12/08 12:48:24;;;;;;;7.78;5.45;;;10.60;99.90;;;;;;5072429;28;20027;-92
2020/12/08 12:50:50;;;;;;;6.57;5.38;;;10.70;99.90;;;;;;5078616;28;20020;-93
2020/12/08 12:53:16;;;;;;;9.32;6.22;;;10.90;99.90;;;;;;5076793;28;20013;-92
2020/12/08 12:55:41;;;;;;;6.85;5.45;;;10.70;99.90;;;;;;5072730;28;20090;-89
2020/12/08 12:58:07;;;;;;;6.53;5.30;;;11.00;99.90;;;;;;5086443;28;20020;-90
2020/12/08 13:00:32;;;;;;;7.10;5.80;;;10.70;99.90;;;;;;5091954;28;20028;-90